Time;durP1;ratioP1;P1;durP2;ratioP2;P2;SDS_P1;SDS_P2;PMS_P1;PMS_P2;Temp;Humidity;BMP_temperature;BMP_pressure;BME280_temperature;BME280_humidity;BME280_pressure;Samples;Min_cycle;Max_cycle;Signal;HPM_P1;HPM_P2
2022/01/05 00:00:19;;;;;;;348.63;191.38;;;4.20;1.00;;;;;;5029463;28;20133;-82
2022/01/05 00:02:46;;;;;;;347.67;180.98;;;4.20;1.00;;;;;;5032870;28;20034;-82
2022/01/05 00:05:15;;;;;;;347.83;183.18;;;4.20;1.00;;;;;;5036697;28;20061;-81
2022/01/05 00:07:44;;;;;;;360.75;190.45;;;4.10;1.00;;;;;;5043123;28;20132;-82
2022/01/05 00:10:13;;;;;;;555.85;287.40;;;4.20;1.00;;;;;;5022423;28;20511;-81
2022/01/05 00:12:41;;;;;;;455.38;247.77;;;4.20;1.00;;;;;;5021287;28;20493;-82
2022/01/05 00:15:10;;;;;;;407.73;224.02;;;4.20;1.00;;;;;;5035311;28;20049;-80
2022/01/05 00:17:39;;;;;;;419.40;226.85;;;4.20;1.00;;;;;;5049278;28;20041;-81
2022/01/05 00:20:08;;;;;;;389.23;214.48;;;4.20;1.00;;;;;;5035825;28;20184;-78
2022/01/05 00:22:36;;;;;;;386.70;204.75;;;4.20;1.00;;;;;;5038974;28;20117;-79
2022/01/05 00:25:04;;;;;;;310.70;161.27;;;4.10;1.00;;;;;;5055625;28;20052;-79
2022/01/05 00:27:31;;;;;;;355.65;190.95;;;4.10;1.00;;;;;;5044170;28;20081;-80
2022/01/05 00:29:59;;;;;;;284.52;148.80;;;4.10;1.00;;;;;;5036415;28;20050;-81
2022/01/05 00:32:28;;;;;;;329.33;170.80;;;4.10;1.00;;;;;;5031223;28;20037;-82
2022/01/05 00:34:57;;;;;;;331.52;169.30;;;4.10;1.00;;;;;;5040800;28;20041;-81
2022/01/05 00:37:25;;;;;;;328.55;169.30;;;4.00;1.00;;;;;;5045250;28;20485;-82
2022/01/05 00:39:52;;;;;;;323.27;168.32;;;4.10;1.00;;;;;;5039089;28;20042;-83
2022/01/05 00:42:20;;;;;;;321.45;166.93;;;4.10;1.00;;;;;;5027674;28;20046;-83
2022/01/05 00:44:48;;;;;;;308.77;155.52;;;4.00;1.00;;;;;;5019055;28;20104;-83
2022/01/05 00:47:16;;;;;;;267.10;142.27;;;4.00;1.00;;;;;;5019284;28;20057;-83
2022/01/05 00:49:43;;;;;;;263.15;137.88;;;4.00;1.00;;;;;;5001688;28;20057;-81
2022/01/05 00:52:13;;;;;;;281.33;145.50;;;4.00;1.00;;;;;;5019353;28;20145;-82
2022/01/05 00:54:41;;;;;;;318.52;168.90;;;3.90;1.00;;;;;;5018842;28;20042;-82
2022/01/05 00:57:09;;;;;;;362.42;188.98;;;3.90;1.00;;;;;;5030293;28;20053;-83
2022/01/05 00:59:36;;;;;;;318.95;170.70;;;4.00;1.00;;;;;;5038995;28;20099;-83
2022/01/05 01:02:04;;;;;;;297.83;156.20;;;4.00;1.00;;;;;;5037857;28;20043;-83
2022/01/05 01:04:31;;;;;;;290.10;153.68;;;4.00;1.00;;;;;;5032402;28;20081;-83
2022/01/05 01:06:59;;;;;;;283.58;150.52;;;4.00;1.00;;;;;;5001193;28;20050;-81
2022/01/05 01:09:28;;;;;;;276.48;144.75;;;3.90;1.00;;;;;;4982045;28;20536;-83
2022/01/05 01:11:55;;;;;;;238.52;122.03;;;3.90;1.00;;;;;;4999224;28;20050;-83
2022/01/05 01:14:23;;;;;;;246.23;129.60;;;3.90;1.00;;;;;;4996756;28;20560;-83
2022/01/05 01:16:50;;;;;;;277.48;144.75;;;3.90;1.00;;;;;;4999292;28;20046;-81
2022/01/05 01:19:17;;;;;;;274.77;142.27;;;4.00;1.00;;;;;;5006815;28;20052;-82
2022/01/05 01:21:45;;;;;;;259.08;133.35;;;4.00;1.00;;;;;;4998567;28;20046;-83
2022/01/05 01:24:13;;;;;;;269.60;142.15;;;4.00;1.00;;;;;;4996665;28;20046;-83
2022/01/05 01:26:42;;;;;;;265.05;138.77;;;4.00;1.00;;;;;;4997079;28;20581;-81
2022/01/05 01:29:09;;;;;;;262.20;138.15;;;4.00;1.00;;;;;;4997815;28;20081;-81
2022/01/05 01:31:37;;;;;;;246.18;127.25;;;4.10;1.00;;;;;;4998577;28;20054;-82
2022/01/05 01:34:04;;;;;;;239.85;124.05;;;4.10;1.00;;;;;;5009955;28;20045;-81
2022/01/05 01:36:32;;;;;;;234.77;120.45;;;4.10;1.00;;;;;;5017305;28;20129;-83
2022/01/05 01:39:00;;;;;;;240.50;126.75;;;4.10;1.00;;;;;;5017708;28;20049;-81
2022/01/05 01:41:27;;;;;;;208.18;111.35;;;4.00;1.00;;;;;;5002875;28;20080;-81
2022/01/05 01:43:56;;;;;;;230.05;118.82;;;4.10;1.00;;;;;;4998377;28;20042;-83
2022/01/05 01:46:24;;;;;;;218.35;111.60;;;4.10;1.00;;;;;;5015777;28;20105;-81
2022/01/05 01:48:52;;;;;;;206.45;112.05;;;4.10;99.90;;;;;;5018132;28;20052;-83
2022/01/05 01:51:19;;;;;;;196.05;104.68;;;4.10;99.90;;;;;;5021294;28;20046;-83
2022/01/05 01:53:47;;;;;;;206.02;107.43;;;4.20;99.90;;;;;;5025909;28;20139;-81
2022/01/05 01:56:15;;;;;;;199.43;104.32;;;4.20;1.00;;;;;;5014618;28;20069;-80
2022/01/05 01:58:45;;;;;;;205.75;110.00;;;4.20;1.00;;;;;;5007388;28;20076;-80
2022/01/05 02:01:15;;;;;;;195.15;102.40;;;4.20;1.00;;;;;;5013858;28;20417;-80
2022/01/05 02:03:43;;;;;;;170.63;93.22;;;4.20;99.90;;;;;;5015414;28;20042;-78
2022/01/05 02:06:11;;;;;;;186.80;97.97;;;4.20;1.00;;;;;;5023960;28;20050;-78
2022/01/05 02:08:40;;;;;;;187.63;100.63;;;4.10;1.00;;;;;;5030846;28;20057;-79
2022/01/05 02:11:09;;;;;;;201.02;110.65;;;4.30;1.00;;;;;;5021072;28;20132;-80
2022/01/05 02:13:36;;;;;;;203.63;108.15;;;4.40;1.00;;;;;;5027737;28;20046;-78
2022/01/05 02:16:05;;;;;;;201.35;107.70;;;4.30;99.90;;;;;;5023620;28;20054;-78
2022/01/05 02:21:21;;;;;;;189.02;97.57;;;4.40;99.90;;;;;;5014329;28;20044;-81
2022/01/05 02:23:48;;;;;;;188.32;98.50;;;4.40;99.90;;;;;;5013660;28;20056;-78
2022/01/05 02:26:16;;;;;;;187.05;95.70;;;4.40;99.90;;;;;;5017007;28;20076;-80
2022/01/05 02:28:44;;;;;;;180.77;97.30;;;4.30;99.90;;;;;;5033514;28;20050;-78
2022/01/05 02:31:12;;;;;;;184.63;95.00;;;4.40;99.90;;;;;;5016865;28;20054;-81
2022/01/05 02:33:40;;;;;;;175.77;91.57;;;4.30;99.90;;;;;;5032620;28;20065;-81
2022/01/05 02:36:10;;;;;;;159.85;86.13;;;4.20;99.90;;;;;;5017511;28;20120;-81
2022/01/05 02:38:39;;;;;;;183.98;96.10;;;4.20;99.90;;;;;;5032161;28;20050;-81
2022/01/05 02:41:09;;;;;;;166.05;88.72;;;4.20;99.90;;;;;;5028954;28;20158;-80
2022/01/05 02:43:36;;;;;;;134.02;73.15;;;4.20;99.90;;;;;;5012978;28;20046;-80
2022/01/05 02:46:06;;;;;;;148.20;79.28;;;4.10;1.00;;;;;;5015037;28;20148;-80
2022/01/05 02:48:33;;;;;;;159.25;87.32;;;4.20;1.00;;;;;;5015066;28;20042;-80
2022/01/05 02:51:01;;;;;;;157.82;83.28;;;4.30;1.00;;;;;;5013970;28;20394;-80
2022/01/05 02:53:29;;;;;;;132.00;73.13;;;4.20;1.00;;;;;;5014999;28;20034;-80
2022/01/05 02:55:58;;;;;;;152.88;82.68;;;4.30;1.00;;;;;;5015305;28;20053;-80
2022/01/05 02:58:25;;;;;;;159.82;87.70;;;4.30;1.00;;;;;;5018668;28;20169;-80
2022/01/05 03:00:53;;;;;;;163.38;89.55;;;4.30;99.90;;;;;;5018709;28;20576;-80
2022/01/05 03:03:20;;;;;;;155.25;86.43;;;4.10;99.90;;;;;;5017507;28;20141;-79
2022/01/05 03:05:48;;;;;;;175.85;89.68;;;4.10;1.00;;;;;;5033222;28;20152;-79
2022/01/05 03:08:15;;;;;;;176.63;96.15;;;4.10;1.00;;;;;;5037283;28;20397;-81
2022/01/05 03:10:43;;;;;;;154.07;83.38;;;4.10;1.00;;;;;;5037243;28;20060;-80
2022/01/05 03:13:12;;;;;;;160.98;85.40;;;4.10;1.00;;;;;;5025990;28;20102;-81
2022/01/05 03:15:40;;;;;;;148.13;80.50;;;4.00;1.00;;;;;;5036569;28;20037;-78
2022/01/05 03:18:08;;;;;;;147.55;77.85;;;3.90;1.00;;;;;;5020005;28;20049;-80
2022/01/05 03:20:36;;;;;;;146.60;78.35;;;3.90;1.00;;;;;;5019507;28;20509;-79
2022/01/05 03:23:05;;;;;;;126.60;70.53;;;3.90;1.00;;;;;;5038124;28;20041;-80
2022/01/05 03:25:32;;;;;;;143.23;80.63;;;3.90;1.00;;;;;;5037611;28;20049;-81
2022/01/05 03:28:00;;;;;;;119.32;67.07;;;4.00;1.00;;;;;;5038026;28;20034;-79
2022/01/05 03:30:31;;;;;;;119.28;67.05;;;3.90;1.00;;;;;;5044383;28;20117;-78
2022/01/05 03:33:12;;;;;;;145.07;76.60;;;3.90;1.00;;;;;;5040328;28;20056;-79
2022/01/05 03:35:44;;;;;;;149.38;78.38;;;3.90;1.00;;;;;;5037172;28;20099;-79
2022/01/05 03:38:12;;;;;;;133.23;72.93;;;3.80;1.00;;;;;;5019176;28;20134;-80
2022/01/05 03:40:40;;;;;;;131.63;71.93;;;3.90;1.00;;;;;;5019445;28;20050;-80
2022/01/05 03:43:09;;;;;;;118.72;65.68;;;3.90;1.00;;;;;;5033985;28;20096;-81
2022/01/05 03:45:39;;;;;;;120.38;66.60;;;3.90;1.00;;;;;;5032111;28;20119;-80
2022/01/05 03:48:09;;;;;;;122.07;66.65;;;3.90;1.00;;;;;;5041024;28;20500;-81
2022/01/05 03:50:37;;;;;;;102.75;56.03;;;3.80;1.00;;;;;;5047097;28;20042;-80
2022/01/05 03:53:05;;;;;;;101.85;58.30;;;3.80;1.00;;;;;;5037570;28;20123;-79
2022/01/05 03:55:33;;;;;;;103.18;58.35;;;3.80;1.00;;;;;;5036620;28;20044;-78
2022/01/05 03:58:01;;;;;;;98.40;55.88;;;3.80;1.00;;;;;;5035557;28;20045;-80
2022/01/05 04:00:29;;;;;;;103.07;56.97;;;3.80;1.00;;;;;;5034691;28;20558;-81
2022/01/05 04:02:59;;;;;;;111.50;60.63;;;3.80;44.80;;;;;;5035990;28;20045;-79
2022/01/05 04:05:28;;;;;;;112.90;62.00;;;3.80;99.90;;;;;;5035230;28;20060;-80
2022/01/05 04:07:55;;;;;;;122.68;64.72;;;3.80;99.90;;;;;;5018101;28;20099;-80
2022/01/05 04:10:23;;;;;;;108.50;58.03;;;3.90;84.60;;;;;;5036709;28;20046;-78
2022/01/05 04:12:50;;;;;;;119.32;65.47;;;4.00;1.00;;;;;;5035974;28;20050;-80
2022/01/05 04:15:19;;;;;;;128.50;71.78;;;3.90;1.00;;;;;;5035612;28;20045;-77
2022/01/05 04:17:46;;;;;;;119.53;66.85;;;3.90;1.00;;;;;;5018338;28;20135;-80
2022/01/05 04:20:16;;;;;;;118.90;64.88;;;3.90;1.00;;;;;;5036183;28;20045;-80
2022/01/05 04:22:44;;;;;;;116.65;61.67;;;3.90;1.00;;;;;;5037738;28;20148;-79
2022/01/05 04:25:12;;;;;;;116.22;62.75;;;3.90;1.00;;;;;;5045439;28;20037;-78
2022/01/05 04:27:40;;;;;;;116.70;61.45;;;4.00;1.00;;;;;;5047052;28;20068;-77
2022/01/05 04:30:10;;;;;;;108.85;60.10;;;3.90;1.00;;;;;;5041478;28;20516;-79
2022/01/05 04:32:38;;;;;;;100.28;57.67;;;3.90;1.00;;;;;;5017469;28;20049;-79
2022/01/05 04:35:08;;;;;;;105.55;59.22;;;3.90;1.00;;;;;;5035395;28;20508;-79
2022/01/05 04:37:37;;;;;;;103.72;59.22;;;4.00;1.00;;;;;;5016955;28;20501;-79
2022/01/05 04:40:06;;;;;;;114.05;66.95;;;4.00;1.00;;;;;;5017477;28;20049;-79
2022/01/05 04:42:34;;;;;;;111.03;63.15;;;4.10;1.00;;;;;;5035122;28;20033;-79
2022/01/05 04:45:01;;;;;;;110.97;63.95;;;4.00;1.00;;;;;;5035656;28;20497;-80
2022/01/05 04:47:29;;;;;;;120.65;68.20;;;4.00;1.00;;;;;;5035354;28;20045;-80
2022/01/05 04:49:56;;;;;;;104.20;60.53;;;4.00;1.00;;;;;;5037719;28;20162;-79
2022/01/05 04:52:24;;;;;;;113.32;62.08;;;4.00;1.00;;;;;;5033596;28;20145;-78
2022/01/05 04:54:53;;;;;;;117.45;65.70;;;4.10;1.00;;;;;;5035906;28;20045;-80
2022/01/05 04:57:21;;;;;;;96.22;55.05;;;4.10;1.00;;;;;;5035465;28;20519;-79
2022/01/05 04:59:48;;;;;;;106.30;59.90;;;4.10;1.00;;;;;;5018069;28;20501;-80
2022/01/05 05:02:16;;;;;;;107.03;61.30;;;4.10;1.00;;;;;;5034278;28;20099;-79
2022/01/05 05:04:44;;;;;;;123.63;68.07;;;4.10;1.00;;;;;;5035074;28;20060;-80
2022/01/05 05:07:11;;;;;;;113.22;63.35;;;4.10;1.00;;;;;;5035572;28;20048;-80
2022/01/05 05:09:39;;;;;;;122.95;68.90;;;4.10;1.00;;;;;;5035549;28;20443;-80
2022/01/05 05:12:10;;;;;;;125.80;67.22;;;4.00;1.00;;;;;;5018505;28;20064;-79
2022/01/05 05:14:38;;;;;;;137.60;73.45;;;4.00;1.00;;;;;;5035494;28;20394;-78
2022/01/05 05:17:06;;;;;;;129.88;72.88;;;4.00;1.00;;;;;;5035809;28;20052;-79
2022/01/05 05:19:33;;;;;;;125.63;69.57;;;3.90;1.00;;;;;;5034754;28;20124;-80
2022/01/05 05:22:01;;;;;;;118.40;67.00;;;4.00;1.00;;;;;;5035784;28;20053;-80
2022/01/05 05:24:28;;;;;;;130.75;71.35;;;4.00;1.00;;;;;;5036157;28;20045;-80
2022/01/05 05:26:56;;;;;;;125.53;70.45;;;4.00;1.00;;;;;;5038899;28;20049;-80
2022/01/05 05:29:25;;;;;;;135.88;75.30;;;4.00;1.00;;;;;;5020132;28;20049;-80
2022/01/05 05:31:52;;;;;;;114.93;61.63;;;4.00;1.00;;;;;;5036193;28;20037;-81
2022/01/05 05:34:20;;;;;;;121.93;67.22;;;4.00;1.00;;;;;;5035297;28;20558;-79
2022/01/05 05:36:47;;;;;;;130.82;70.57;;;4.00;1.00;;;;;;5018812;28;20045;-80
2022/01/05 05:39:15;;;;;;;132.38;74.97;;;3.90;1.00;;;;;;5034923;28;20103;-80
2022/01/05 05:41:42;;;;;;;132.65;74.47;;;3.90;1.00;;;;;;5044816;28;20479;-78
2022/01/05 05:44:10;;;;;;;121.45;69.45;;;3.90;1.00;;;;;;5042297;28;20476;-79
2022/01/05 05:46:39;;;;;;;113.18;63.78;;;3.80;1.00;;;;;;5047431;28;20045;-79
2022/01/05 05:49:06;;;;;;;141.40;79.05;;;3.80;1.00;;;;;;5049323;28;20045;-79
2022/01/05 05:51:34;;;;;;;140.05;80.32;;;3.90;1.00;;;;;;5046172;28;20045;-80
2022/01/05 05:54:01;;;;;;;134.32;78.72;;;3.90;1.00;;;;;;5044792;28;20516;-81
2022/01/05 05:56:29;;;;;;;140.15;76.68;;;3.90;1.00;;;;;;5040033;28;20041;-80
2022/01/05 05:58:59;;;;;;;126.85;74.25;;;3.80;1.00;;;;;;5043016;28;20037;-78
2022/01/05 06:01:28;;;;;;;144.13;83.25;;;4.00;1.00;;;;;;5045250;28;20073;-79
2022/01/05 06:03:57;;;;;;;138.10;79.20;;;3.90;1.00;;;;;;5044020;28;20097;-79
2022/01/05 06:06:24;;;;;;;138.25;74.85;;;3.90;1.00;;;;;;5043247;28;20045;-77
2022/01/05 06:08:52;;;;;;;183.95;100.35;;;3.90;29.00;;;;;;5036571;28;20140;-78
2022/01/05 06:11:19;;;;;;;178.00;100.15;;;3.80;1.60;;;;;;5034253;28;20076;-79
2022/01/05 06:13:47;;;;;;;452.95;251.68;;;3.80;99.90;;;;;;5016926;28;20048;-81
2022/01/05 06:16:15;;;;;;;394.48;222.85;;;3.70;32.90;;;;;;5034396;28;20074;-81
2022/01/05 06:18:42;;;;;;;222.73;123.05;;;3.70;1.00;;;;;;5026552;28;20493;-78
2022/01/05 06:21:11;;;;;;;207.98;116.03;;;3.60;1.00;;;;;;5035511;28;20069;-82
2022/01/05 06:23:39;;;;;;;195.50;107.13;;;3.60;99.90;;;;;;5030684;28;20054;-83
2022/01/05 06:26:06;;;;;;;178.85;98.30;;;3.70;99.90;;;;;;5035137;28;20065;-81
2022/01/05 06:28:34;;;;;;;173.98;95.65;;;3.70;99.90;;;;;;5035371;28;20045;-80
2022/01/05 06:31:01;;;;;;;161.77;88.72;;;3.70;99.90;;;;;;5021913;28;20117;-82
2022/01/05 06:33:29;;;;;;;189.93;108.18;;;3.70;99.90;;;;;;5051086;28;20169;-80
2022/01/05 06:35:59;;;;;;;207.10;117.13;;;3.70;99.90;;;;;;5034438;28;20441;-81
2022/01/05 06:38:28;;;;;;;234.40;133.38;;;3.70;99.90;;;;;;5020245;28;20439;-79
2022/01/05 06:40:56;;;;;;;259.33;147.50;;;3.70;99.90;;;;;;5028887;28;20405;-78
2022/01/05 06:43:23;;;;;;;280.88;164.48;;;3.70;99.90;;;;;;5044868;28;20050;-77
2022/01/05 06:45:51;;;;;;;283.70;161.93;;;3.70;99.90;;;;;;5058938;28;20068;-79
2022/01/05 06:48:19;;;;;;;226.90;127.88;;;3.80;99.90;;;;;;5053359;28;20064;-80
2022/01/05 06:50:46;;;;;;;185.75;105.45;;;3.80;99.90;;;;;;5046760;28;20060;-79
2022/01/05 06:53:15;;;;;;;195.38;110.03;;;3.80;99.90;;;;;;5035319;28;20034;-77
2022/01/05 06:55:43;;;;;;;248.90;134.63;;;3.80;99.90;;;;;;5032346;28;20037;-77
2022/01/05 06:58:11;;;;;;;225.40;123.90;;;3.80;99.90;;;;;;5020245;28;20132;-77
2022/01/05 07:00:39;;;;;;;237.02;131.63;;;3.80;99.90;;;;;;5036227;28;20140;-78
2022/01/05 07:03:06;;;;;;;222.55;123.55;;;3.70;99.90;;;;;;5034873;28;20052;-81
2022/01/05 07:05:34;;;;;;;234.48;129.90;;;3.70;1.00;;;;;;5030294;28;20414;-78
2022/01/05 07:08:01;;;;;;;186.38;110.40;;;3.80;1.00;;;;;;5034682;28;20072;-79
2022/01/05 07:10:29;;;;;;;242.40;133.45;;;3.90;1.00;;;;;;5037952;28;20128;-80
2022/01/05 07:12:58;;;;;;;214.77;118.82;;;3.80;1.00;;;;;;5036572;28;20117;-78
2022/01/05 07:15:26;;;;;;;235.93;128.80;;;3.90;1.00;;;;;;5007544;28;20044;-81
2022/01/05 07:17:53;;;;;;;162.10;94.32;;;3.90;1.00;;;;;;5027663;28;20485;-80
2022/01/05 07:20:21;;;;;;;187.38;106.22;;;4.00;1.00;;;;;;5021969;28;20053;-77
2022/01/05 07:22:48;;;;;;;185.27;106.75;;;4.20;5.10;;;;;;5028227;28;20053;-81
2022/01/05 07:25:16;;;;;;;214.10;115.07;;;4.40;1.00;;;;;;5039110;28;20036;-80
2022/01/05 07:27:44;;;;;;;227.02;128.27;;;4.60;1.00;;;;;;5039117;28;20041;-82
2022/01/05 07:30:13;;;;;;;254.15;138.10;;;4.80;99.90;;;;;;5020337;28;20049;-82
2022/01/05 07:32:41;;;;;;;211.57;117.00;;;5.00;99.90;;;;;;5040350;28;20109;-78
2022/01/05 07:35:09;;;;;;;171.55;97.72;;;5.10;1.00;;;;;;5041037;28;20547;-81
2022/01/05 07:37:37;;;;;;;307.23;171.20;;;5.20;74.00;;;;;;5039696;28;20124;-81
2022/01/05 07:40:06;;;;;;;207.60;116.57;;;5.30;1.00;;;;;;5038750;28;20049;-79
2022/01/05 07:42:34;;;;;;;156.68;91.35;;;5.40;1.00;;;;;;5038613;28;20103;-80
2022/01/05 07:45:02;;;;;;;172.95;99.75;;;5.60;1.00;;;;;;5020685;28;20559;-81
2022/01/05 07:47:31;;;;;;;154.15;94.07;;;5.70;1.00;;;;;;5018589;28;20076;-84
2022/01/05 07:49:58;;;;;;;154.18;93.15;;;5.80;1.00;;;;;;5018564;28;20049;-81
2022/01/05 07:52:26;;;;;;;151.93;89.25;;;5.80;1.00;;;;;;5019850;28;20485;-82
2022/01/05 07:54:54;;;;;;;149.95;87.95;;;6.00;1.00;;;;;;5019309;28;20029;-81
2022/01/05 07:57:21;;;;;;;176.95;102.00;;;6.20;1.00;;;;;;5018087;28;20132;-81
2022/01/05 07:59:49;;;;;;;188.88;109.88;;;6.40;99.90;;;;;;5009242;28;20072;-82
2022/01/05 08:02:16;;;;;;;195.60;108.57;;;6.60;99.90;;;;;;5024119;28;20444;-82
2022/01/05 08:04:49;;;;;;;181.50;104.32;;;6.60;69.80;;;;;;5030336;28;20042;-80
2022/01/05 08:07:16;;;;;;;180.80;103.40;;;6.80;43.80;;;;;;5024818;28;20136;-81
2022/01/05 08:09:44;;;;;;;175.10;102.03;;;7.00;1.00;;;;;;5024993;28;20045;-79
2022/01/05 08:12:13;;;;;;;182.68;105.80;;;7.10;1.00;;;;;;5043676;28;20439;-80
2022/01/05 08:14:40;;;;;;;185.05;106.07;;;7.30;1.00;;;;;;5045683;28;20106;-81
2022/01/05 08:17:08;;;;;;;188.90;111.40;;;7.50;1.00;;;;;;5038877;28;20073;-81
2022/01/05 08:19:36;;;;;;;194.05;114.63;;;7.70;1.00;;;;;;5029037;28;20045;-81
2022/01/05 08:22:05;;;;;;;191.55;113.03;;;7.90;1.00;;;;;;5037033;28;20053;-80
2022/01/05 08:24:32;;;;;;;188.23;114.22;;;8.20;1.00;;;;;;5047036;28;20037;-82
2022/01/05 08:27:00;;;;;;;186.90;111.53;;;8.50;1.00;;;;;;5041418;28;20102;-82
2022/01/05 08:29:28;;;;;;;180.60;108.18;;;8.60;1.00;;;;;;5047527;28;20068;-81
2022/01/05 08:31:55;;;;;;;158.55;98.95;;;8.80;1.00;;;;;;5048582;28;20065;-81
2022/01/05 08:34:23;;;;;;;167.57;104.55;;;8.80;1.00;;;;;;5046789;28;20049;-81
2022/01/05 08:36:50;;;;;;;172.50;107.20;;;8.90;1.00;;;;;;5046610;28;20068;-83
2022/01/05 08:39:20;;;;;;;181.05;108.35;;;9.00;1.00;;;;;;5047572;28;20075;-83
2022/01/05 08:41:47;;;;;;;171.55;107.38;;;9.00;1.00;;;;;;5048766;28;20049;-81
2022/01/05 08:44:15;;;;;;;205.05;115.47;;;9.10;1.00;;;;;;5045713;28;20045;-83
2022/01/05 08:46:43;;;;;;;247.77;126.80;;;9.20;26.80;;;;;;5050344;28;20049;-80
2022/01/05 08:49:12;;;;;;;238.43;122.88;;;9.30;1.00;;;;;;5054826;28;20065;-80
2022/01/05 08:51:40;;;;;;;199.70;115.53;;;9.40;99.90;;;;;;5044863;28;20034;-80
2022/01/05 08:54:07;;;;;;;189.25;110.18;;;9.40;99.90;;;;;;5047887;28;20046;-82
2022/01/05 08:56:39;;;;;;;203.27;117.93;;;9.60;99.90;;;;;;5043379;28;20038;-82
2022/01/05 08:59:07;;;;;;;210.18;121.88;;;9.70;1.00;;;;;;5026148;28;20046;-84
2022/01/05 09:01:42;;;;;;;222.07;126.50;;;9.80;1.00;;;;;;5017298;28;20040;-82
2022/01/05 09:04:10;;;;;;;218.73;126.05;;;10.00;99.90;;;;;;5036825;28;20042;-83
2022/01/05 09:06:38;;;;;;;225.32;130.18;;;10.10;1.00;;;;;;5046511;28;20124;-83
2022/01/05 09:09:05;;;;;;;249.77;141.60;;;10.20;99.90;;;;;;5047003;28;20041;-84
2022/01/05 09:11:33;;;;;;;256.35;147.30;;;10.30;99.90;;;;;;5024662;28;20084;-84
2022/01/05 09:14:05;;;;;;;249.15;139.27;;;10.50;99.90;;;;;;5032258;28;20136;-83
2022/01/05 09:16:34;;;;;;;253.27;141.68;;;10.60;99.90;;;;;;5043849;28;20049;-83
2022/01/05 09:19:03;;;;;;;249.77;140.82;;;10.90;99.90;;;;;;5066718;28;20049;-83
2022/01/05 09:21:30;;;;;;;213.82;126.22;;;11.20;1.00;;;;;;5033314;28;20068;-82
2022/01/05 09:23:58;;;;;;;231.13;132.45;;;11.50;1.00;;;;;;5029607;28;20054;-83
2022/01/05 09:29:19;;;;;;;187.70;111.95;;;12.00;1.00;;;;;;5009501;28;20041;-82
2022/01/05 09:31:47;;;;;;;208.80;124.07;;;12.30;1.00;;;;;;5031578;28;20036;-83
2022/01/05 09:34:14;;;;;;;168.77;99.20;;;12.60;99.90;;;;;;5018143;28;20057;-83
2022/01/05 09:36:46;;;;;;;135.40;77.15;;;12.80;80.90;;;;;;5030768;28;20093;-83
2022/01/05 09:42:14;;;;;;;93.85;54.67;;;13.30;1.00;;;;;;4952339;29;20111;-81
2022/01/05 09:44:45;;;;;;;128.65;79.63;;;13.50;1.00;;;;;;4953211;29;20543;-83
2022/01/05 09:47:42;;;;;;;110.22;64.68;;;13.70;99.90;;;;;;5000043;28;20084;-84
2022/01/05 09:50:11;;;;;;;105.20;61.67;;;14.00;1.00;;;;;;5036298;28;20050;-82
2022/01/05 09:52:40;;;;;;;87.70;54.72;;;14.20;7.70;;;;;;5039275;28;20106;-83
2022/01/05 09:55:09;;;;;;;69.50;42.20;;;14.50;99.90;;;;;;5029862;28;20053;-84
2022/01/05 09:57:39;;;;;;;87.43;51.90;;;15.00;1.00;;;;;;5049600;28;20060;-83
2022/01/05 10:00:11;;;;;;;78.82;48.78;;;15.60;1.00;;;;;;5051696;28;20049;-82
2022/01/05 10:02:42;;;;;;;63.45;37.35;;;15.90;1.00;;;;;;5052357;28;20100;-81
2022/01/05 10:05:11;;;;;;;54.63;32.58;;;16.00;1.00;;;;;;5028922;28;20062;-82
2022/01/05 10:07:39;;;;;;;37.28;20.90;;;15.90;1.00;;;;;;5034660;28;20065;-82
2022/01/05 10:10:07;;;;;;;16.73;7.57;;;16.10;1.00;;;;;;5021578;28;20050;-83
2022/01/05 10:12:35;;;;;;;12.18;6.55;;;16.30;1.00;;;;;;5037455;28;20041;-84
2022/01/05 10:15:03;;;;;;;18.35;9.95;;;16.50;1.00;;;;;;5039466;28;20128;-83
2022/01/05 10:17:34;;;;;;;15.70;6.65;;;16.70;1.00;;;;;;5037127;28;20041;-81
2022/01/05 10:20:06;;;;;;;16.30;6.97;;;16.90;1.00;;;;;;5035911;28;20045;-81
2022/01/05 10:22:36;;;;;;;11.68;5.60;;;17.10;1.00;;;;;;5019726;28;20047;-82
2022/01/05 10:25:05;;;;;;;16.55;8.20;;;17.20;1.00;;;;;;5035911;28;20053;-82
2022/01/05 10:27:33;;;;;;;25.48;9.18;;;17.30;1.00;;;;;;5038927;28;20069;-82
2022/01/05 10:30:04;;;;;;;14.40;6.15;;;17.20;1.00;;;;;;5044790;28;20037;-82
2022/01/05 10:32:36;;;;;;;11.40;4.03;;;17.30;1.00;;;;;;5043830;28;20064;-81
2022/01/05 10:35:12;;;;;;;12.48;5.05;;;17.30;1.00;;;;;;5042685;28;20073;-83
2022/01/05 10:37:42;;;;;;;9.00;4.60;;;17.40;1.00;;;;;;5039688;28;20555;-81
2022/01/05 10:40:19;;;;;;;8.80;3.97;;;17.40;1.00;;;;;;5043793;28;20088;-83
2022/01/05 10:42:51;;;;;;;10.30;3.70;;;17.20;1.00;;;;;;5043427;28;20057;-82
2022/01/05 10:45:20;;;;;;;7.53;3.58;;;17.10;1.00;;;;;;5039488;28;20111;-84
2022/01/05 10:48:05;;;;;;;11.13;4.13;;;17.00;1.00;;;;;;5040277;28;20041;-82
2022/01/05 10:50:35;;;;;;;12.07;4.85;;;16.80;1.00;;;;;;5044890;28;20050;-84
2022/01/05 10:53:07;;;;;;;12.10;4.40;;;16.70;1.00;;;;;;5044955;28;20474;-83
2022/01/05 10:55:41;;;;;;;18.88;6.20;;;16.60;1.00;;;;;;5046204;28;20048;-84
2022/01/05 10:58:11;;;;;;;34.40;17.98;;;16.40;1.00;;;;;;5043161;28;20053;-81
2022/01/05 11:00:43;;;;;;;16.27;7.18;;;16.40;1.00;;;;;;5040260;28;20049;-84
2022/01/05 11:03:35;;;;;;;8.30;4.85;;;16.40;1.00;;;;;;5023533;28;20061;-84
2022/01/05 11:06:05;;;;;;;11.80;4.60;;;16.40;1.00;;;;;;5039555;28;20052;-84
2022/01/05 11:08:49;;;;;;;14.80;5.80;;;16.40;1.00;;;;;;5035727;28;20069;-82
2022/01/05 11:11:37;;;;;;;12.40;6.05;;;16.40;1.00;;;;;;5037846;28;20042;-84
2022/01/05 11:14:06;;;;;;;14.02;6.03;;;16.40;1.00;;;;;;5023965;28;20045;-84
2022/01/05 11:16:34;;;;;;;13.70;6.70;;;16.40;1.00;;;;;;5038298;28;20113;-83
2022/01/05 11:19:21;;;;;;;12.82;6.57;;;16.40;1.00;;;;;;5023527;28;20052;-84
2022/01/05 11:22:07;;;;;;;14.30;6.22;;;16.40;1.00;;;;;;5041994;28;20045;-84
2022/01/05 11:24:37;;;;;;;15.13;5.80;;;16.30;1.00;;;;;;5041732;28;20049;-83
2022/01/05 11:27:07;;;;;;;14.38;7.22;;;16.30;1.00;;;;;;5042290;28;20053;-83
2022/01/05 11:29:35;;;;;;;18.85;9.23;;;16.30;1.00;;;;;;5022545;28;20053;-83
2022/01/05 11:32:04;;;;;;;14.00;7.85;;;16.40;1.00;;;;;;5039096;28;20484;-84
2022/01/05 11:34:33;;;;;;;24.13;9.98;;;16.50;1.00;;;;;;5038977;28;20099;-83
2022/01/05 11:37:02;;;;;;;27.80;10.75;;;16.60;1.00;;;;;;5038909;28;20122;-81
2022/01/05 11:39:34;;;;;;;19.58;10.77;;;16.70;1.00;;;;;;5038900;28;20408;-83
2022/01/05 11:42:10;;;;;;;25.30;11.57;;;16.80;1.00;;;;;;5039937;28;20697;-83
2022/01/05 11:44:46;;;;;;;31.02;15.02;;;16.90;1.00;;;;;;5021749;28;20045;-80
2022/01/05 11:47:21;;;;;;;46.47;22.63;;;17.00;1.00;;;;;;5040727;28;20120;-82
2022/01/05 11:49:50;;;;;;;45.90;26.77;;;17.00;1.00;;;;;;5040673;28;20060;-82
2022/01/05 11:52:17;;;;;;;52.10;26.35;;;17.00;1.00;;;;;;5040271;28;20523;-83
2022/01/05 11:55:05;;;;;;;52.83;27.50;;;17.10;1.00;;;;;;5039626;28;20043;-83
2022/01/05 11:57:33;;;;;;;29.30;14.52;;;17.10;1.00;;;;;;5043013;28;20124;-82
2022/01/05 12:00:17;;;;;;;30.25;13.95;;;17.20;1.00;;;;;;5040502;28;20033;-83
2022/01/05 12:02:45;;;;;;;22.20;10.77;;;17.20;1.00;;;;;;5040787;28;20046;-84
2022/01/05 12:05:14;;;;;;;16.98;8.15;;;17.20;1.00;;;;;;5046825;28;20080;-84
2022/01/05 12:07:45;;;;;;;21.13;10.13;;;17.20;1.00;;;;;;5050619;28;20057;-85
2022/01/05 12:10:18;;;;;;;17.58;9.02;;;17.30;1.00;;;;;;5048101;28;20049;-81
2022/01/05 12:12:57;;;;;;;30.92;13.50;;;17.40;1.00;;;;;;5041288;28;20072;-82
2022/01/05 12:15:50;;;;;;;37.97;18.15;;;17.40;1.00;;;;;;5020123;28;20053;-83
2022/01/05 12:18:26;;;;;;;32.60;15.10;;;17.60;1.00;;;;;;5038721;28;20378;-82
2022/01/05 12:20:57;;;;;;;17.95;8.98;;;17.90;1.00;;;;;;5038299;28;20043;-83
2022/01/05 12:23:26;;;;;;;13.80;9.00;;;18.10;1.00;;;;;;5040518;28;20037;-84
2022/01/05 12:26:16;;;;;;;11.10;6.10;;;18.20;1.00;;;;;;5039566;28;20052;-84
2022/01/05 12:28:53;;;;;;;12.60;7.93;;;18.20;1.00;;;;;;5038417;28;20116;-81
2022/01/05 12:31:57;;;;;;;18.90;8.70;;;18.30;1.00;;;;;;5039826;28;20492;-83
2022/01/05 12:34:56;;;;;;;15.00;7.80;;;18.30;1.00;;;;;;5039274;28;20133;-84
2022/01/05 12:37:46;;;;;;;9.85;5.90;;;18.40;1.00;;;;;;5043348;28;20060;-82
2022/01/05 12:40:31;;;;;;;10.25;6.65;;;18.40;1.00;;;;;;5042446;28;20061;-82
2022/01/05 12:43:42;;;;;;;12.50;5.82;;;18.40;1.00;;;;;;5042055;28;20050;-83
2022/01/05 12:46:13;;;;;;;15.18;7.00;;;18.40;1.00;;;;;;5039284;28;20053;-82
2022/01/05 12:49:00;;;;;;;9.50;5.30;;;18.40;1.00;;;;;;5042379;28;20064;-82
2022/01/05 12:51:38;;;;;;;14.20;6.03;;;18.30;1.00;;;;;;5041555;28;20115;-81
2022/01/05 12:54:10;;;;;;;22.00;7.10;;;18.30;1.00;;;;;;5041389;28;20056;-82